»·PEaware :: N869YU KPDX-KEUG

N869YU :: KPDX-KEUG

FLIGHT INFORMATION

Flight Status: Arrived
Operator: Privately registered:
United States
More flights under this callsign
Pilot: Joe C. (19058)
Aircraft: SOCATA TBM-900
(TBM9)
More flights by this aircraft type
Origin: KPDX Portland Intl
United States
Destination: KEUG Mahlon Sweet
United States
More flights between these airports :: More routes between these airports
Route: PTLD1 BTG V23 EUG
File this flight plan on PilotEdge
Remarks:
Altitude:
(Current/Filed)
16,000ft
Speed:
(Current/Filed)
287kts
Departed: 26-Oct-18 05:54 PM
Arrived: 26-Oct-18 06:28 PM
Distance/Time
Traveled:
92nm/0:33
Distance/Time
To Go:
Arrived

Flight Plot

Page will automatically refresh every two minutes.

Flight plan parsing failed; only flown route is shown


Map Options




Map Legend


Flown Route
Filed Route
Departure Airport
Arrival Airport
Navaid (VOR, NDB)
Fix

Horizontal Profiles

Position Reports

Time Latitude Longitude Heading Altitude Ground
Speed
26-Oct-18 17:38 45.587224 -122.582957 211 20ft 0kts
26-Oct-18 17:39 45.587225 -122.582957 211 19ft 0kts
26-Oct-18 17:40 45.587225 -122.582957 211 19ft 0kts
26-Oct-18 17:41 45.587225 -122.582957 211 19ft 0kts
26-Oct-18 17:42 45.587225 -122.582957 211 19ft 0kts
26-Oct-18 17:43 45.587225 -122.582957 211 19ft 0kts
26-Oct-18 17:44 45.587225 -122.582957 211 19ft 0kts
26-Oct-18 17:45 45.587225 -122.582956 211 19ft 0kts
26-Oct-18 17:46 45.587225 -122.582956 211 19ft 0kts
26-Oct-18 17:47 45.587225 -122.582956 211 19ft 0kts
26-Oct-18 17:48 45.587274 -122.583072 32 19ft 0kts
26-Oct-18 17:49 45.587274 -122.583072 32 19ft 0kts
26-Oct-18 17:50 45.587274 -122.583072 32 19ft 0kts
26-Oct-18 17:51 45.587274 -122.583072 32 19ft 0kts
26-Oct-18 17:52 45.587859 -122.582653 18 19ft 19kts
26-Oct-18 17:53 45.586188 -122.576698 117 19ft 19kts
26-Oct-18 17:54 45.582935 -122.568320 119 19ft 19kts
26-Oct-18 17:55 45.582744 -122.567449 75 19ft 0kts
26-Oct-18 17:56 45.590090 -122.583470 300 169ft 135kts
26-Oct-18 17:57 45.608312 -122.632034 298 2379ft 139kts
26-Oct-18 17:58 45.624544 -122.675810 299 4381ft 131kts
26-Oct-18 17:59 45.640896 -122.719424 297 6806ft 113kts
26-Oct-18 18:00 45.653042 -122.758616 255 8747ft 111kts
26-Oct-18 18:01 45.618729 -122.755981 174 10578ft 147kts
26-Oct-18 18:02 45.580802 -122.734543 174 12606ft 148kts
26-Oct-18 18:03 45.543302 -122.710880 174 14649ft 152kts
26-Oct-18 18:04 45.503701 -122.689542 208 16048ft 154kts
26-Oct-18 18:05 45.452880 -122.708868 205 16035ft 214kts
26-Oct-18 18:06 45.395200 -122.731575 205 16026ft 231kts
26-Oct-18 18:07 45.333142 -122.756024 205 16035ft 236kts
26-Oct-18 18:08 45.270077 -122.780793 205 16037ft 236kts
26-Oct-18 18:09 45.206762 -122.805594 205 16037ft 236kts
26-Oct-18 18:10 45.174517 -122.818281 205 16037ft 236kts
26-Oct-18 18:11 45.174517 -122.818281 205 16037ft 236kts
26-Oct-18 18:12 45.174517 -122.818281 205 16037ft 236kts
26-Oct-18 18:13 45.110855 -122.843222 203 14772ft 269kts
26-Oct-18 18:14 45.037198 -122.871955 200 12992ft 280kts
26-Oct-18 18:15 44.963919 -122.900407 199 11178ft 266kts
26-Oct-18 18:16 44.894905 -122.927097 199 10009ft 242kts
26-Oct-18 18:17 44.843283 -122.947080 199 10016ft 229kts
26-Oct-18 18:18 44.772312 -122.976406 204 9898ft 233kts
26-Oct-18 18:19 44.719917 -123.005033 204 8413ft 269kts
26-Oct-18 18:20 44.637444 -123.050775 204 6251ft 262kts
26-Oct-18 18:21 44.583957 -123.081055 204 4768ft 251kts
26-Oct-18 18:22 44.520555 -123.118133 204 3054ft 244kts
26-Oct-18 18:23 44.462871 -123.152200 205 3025ft 215kts
26-Oct-18 18:24 44.406155 -123.186594 204 2339ft 234kts
26-Oct-18 18:25 44.347809 -123.223191 201 2012ft 221kts
26-Oct-18 18:26 44.286767 -123.222031 179 2021ft 226kts
26-Oct-18 18:27 44.223457 -123.220692 179 2003ft 211kts
26-Oct-18 18:28 44.173202 -123.219742 179 1111ft 154kts
26-Oct-18 18:29 44.142694 -123.219238 179 544ft 93kts
26-Oct-18 18:30 44.125214 -123.217672 147 361ft 10kts
26-Oct-18 18:31 44.124427 -123.217091 175 362ft 14kts
26-Oct-18 18:32 44.118596 -123.215584 147 367ft 20kts
26-Oct-18 18:33 44.117929 -123.214762 29 367ft 0kts
26-Oct-18 18:34 44.117929 -123.214762 29 367ft 0kts
26-Oct-18 18:35 44.117929 -123.214762 29 367ft 0kts
26-Oct-18 18:36 44.117929 -123.214762 29 367ft 0kts
26-Oct-18 18:37 44.117929 -123.214762 29 367ft 0kts
26-Oct-18 18:38 44.117929 -123.214762 29 367ft 0kts
26-Oct-18 18:39 44.117929 -123.214762 29 367ft 0kts
26-Oct-18 18:40 44.117929 -123.214762 29 367ft 0kts
26-Oct-18 18:41 44.117929 -123.214762 29 367ft 0kts

Navigation Log

Ident Type
Flight plan parsing failed, navigation log unavailable